Time;durP1;ratioP1;P1;durP2;ratioP2;P2;SDS_P1;SDS_P2;PMS_P1;PMS_P2;Temp;Humidity;BMP_temperature;BMP_pressure;BME280_temperature;BME280_humidity;BME280_pressure;Samples;Min_cycle;Max_cycle;Signal;HPM_P1;HPM_P2
2022/10/04 00:01:11;;;;;;;14.52;6.60;;;13.40;99.90;;;;;;5104061;27;37048;-59
2022/10/04 00:03:42;;;;;;;13.32;6.82;;;13.40;99.90;;;;;;5103238;27;37715;-59
2022/10/04 00:06:16;;;;;;;10.20;5.50;;;13.40;99.90;;;;;;5105785;27;39005;-59
2022/10/04 00:08:49;;;;;;;12.15;5.95;;;13.50;99.90;;;;;;5104792;27;38108;-59
2022/10/04 00:11:22;;;;;;;14.55;6.32;;;13.40;99.90;;;;;;5107248;27;36926;-59
2022/10/04 00:13:53;;;;;;;12.43;5.97;;;13.40;99.90;;;;;;5109022;27;37648;-59
2022/10/04 00:16:29;;;;;;;12.30;6.35;;;13.40;99.90;;;;;;5106079;27;37507;-59
2022/10/04 00:19:37;;;;;;;16.00;7.05;;;13.40;99.90;;;;;;5108201;27;38158;-59
2022/10/04 00:22:27;;;;;;;14.15;5.40;;;13.40;99.90;;;;;;5106474;27;37854;-59
2022/10/04 00:25:19;;;;;;;22.77;7.47;;;13.40;99.90;;;;;;5104489;27;38820;-59
2022/10/04 00:28:26;;;;;;;15.70;5.97;;;13.50;99.90;;;;;;5108614;27;38559;-59
2022/10/04 00:31:19;;;;;;;12.98;5.93;;;13.40;99.90;;;;;;5107984;27;37486;-59
2022/10/04 00:33:48;;;;;;;11.73;4.88;;;13.40;99.90;;;;;;5108325;27;36422;-59
2022/10/04 00:36:55;;;;;;;12.05;5.78;;;13.40;99.90;;;;;;5106735;27;38535;-59
2022/10/04 00:39:43;;;;;;;15.75;6.43;;;13.40;99.90;;;;;;5106678;27;38308;-59
2022/10/04 00:42:32;;;;;;;13.75;5.40;;;13.30;99.90;;;;;;5108434;27;36867;-59
2022/10/04 00:45:02;;;;;;;14.98;4.85;;;13.30;99.90;;;;;;5091024;27;36235;-59
2022/10/04 00:47:32;;;;;;;13.38;4.78;;;13.30;99.90;;;;;;5107926;27;37362;-59
2022/10/04 00:50:11;;;;;;;11.77;5.82;;;13.30;99.90;;;;;;5108846;27;37666;-59
2022/10/04 00:52:45;;;;;;;16.00;5.28;;;13.30;99.90;;;;;;5106911;27;37341;-59
2022/10/04 00:55:24;;;;;;;14.70;5.35;;;13.30;99.90;;;;;;5108311;27;36062;-59
2022/10/04 00:57:58;;;;;;;23.58;6.82;;;13.30;99.90;;;;;;5105877;27;39140;-59
2022/10/04 01:00:26;;;;;;;13.13;5.05;;;13.30;99.90;;;;;;5105407;27;39169;-59
2022/10/04 01:02:58;;;;;;;12.00;5.55;;;13.30;99.90;;;;;;5107409;27;36298;-58
2022/10/04 01:05:30;;;;;;;16.55;5.55;;;13.30;99.90;;;;;;5108582;27;36515;-59
2022/10/04 01:08:04;;;;;;;13.70;5.28;;;13.20;99.90;;;;;;5107534;27;36546;-59
2022/10/04 01:10:40;;;;;;;15.45;5.85;;;13.30;99.90;;;;;;5107873;27;36664;-59
2022/10/04 01:13:11;;;;;;;13.02;5.50;;;13.30;99.90;;;;;;5107723;27;37269;-59
2022/10/04 01:15:44;;;;;;;16.33;5.93;;;13.20;99.90;;;;;;5107868;27;37033;-59
2022/10/04 01:18:16;;;;;;;16.95;6.78;;;13.20;99.90;;;;;;5108206;27;39094;-59
2022/10/04 01:20:54;;;;;;;14.73;5.30;;;13.20;99.90;;;;;;5106908;27;36507;-58
2022/10/04 01:23:39;;;;;;;11.45;5.15;;;13.30;99.90;;;;;;5106340;27;36228;-59
2022/10/04 01:26:38;;;;;;;12.50;6.40;;;13.20;99.90;;;;;;5104618;27;37241;-58
2022/10/04 01:29:09;;;;;;;12.90;5.28;;;13.20;99.90;;;;;;5107779;27;37067;-59
2022/10/04 01:31:40;;;;;;;16.75;5.82;;;13.30;99.90;;;;;;5107029;27;37707;-59
2022/10/04 01:34:08;;;;;;;13.82;6.20;;;13.30;99.90;;;;;;5105715;27;37248;-59
2022/10/04 01:36:36;;;;;;;16.13;6.05;;;13.20;99.90;;;;;;5106405;27;37039;-59
2022/10/04 01:39:06;;;;;;;12.30;6.00;;;13.20;99.90;;;;;;5108505;27;38564;-59
2022/10/04 01:41:40;;;;;;;15.68;5.65;;;13.20;99.90;;;;;;5106893;27;38146;-59
2022/10/04 01:44:11;;;;;;;14.90;6.00;;;13.30;99.90;;;;;;5106795;27;38464;-59
2022/10/04 01:46:39;;;;;;;10.68;5.45;;;13.30;99.90;;;;;;5106568;27;36419;-59
2022/10/04 01:49:12;;;;;;;13.35;5.43;;;13.30;99.90;;;;;;5104825;27;37533;-59
2022/10/04 01:51:45;;;;;;;17.02;5.88;;;13.30;99.90;;;;;;5105648;27;38083;-59
2022/10/04 01:54:17;;;;;;;14.18;5.50;;;13.30;99.90;;;;;;5107340;27;36244;-59
2022/10/04 01:56:47;;;;;;;13.50;5.32;;;13.30;99.90;;;;;;5105326;27;37606;-59
2022/10/04 01:59:21;;;;;;;13.90;5.53;;;13.20;99.90;;;;;;5106075;27;37970;-59
2022/10/04 02:01:51;;;;;;;;;;;13.30;99.90;;;;;;5107730;27;38317;-59
2022/10/04 02:04:20;;;;;;;12.63;5.13;;;13.30;99.90;;;;;;5107555;27;36631;-59
2022/10/04 02:06:53;;;;;;;13.85;5.57;;;13.20;99.90;;;;;;5104440;27;35940;-59
2022/10/04 02:09:26;;;;;;;15.57;5.35;;;13.20;99.90;;;;;;5107000;27;37576;-59
2022/10/04 02:11:57;;;;;;;14.18;6.00;;;13.20;99.90;;;;;;5106456;27;38214;-59
2022/10/04 02:14:25;;;;;;;14.15;5.85;;;13.20;99.90;;;;;;5107189;27;38841;-58
2022/10/04 02:16:53;;;;;;;18.75;5.53;;;13.20;99.90;;;;;;5106340;27;39380;-59
2022/10/04 02:19:23;;;;;;;16.88;5.55;;;13.20;99.90;;;;;;5105747;27;37382;-59
2022/10/04 02:21:51;;;;;;;12.73;5.13;;;13.20;99.90;;;;;;5106458;27;37279;-59
2022/10/04 02:24:19;;;;;;;15.15;5.85;;;13.10;99.90;;;;;;5107800;27;38245;-59
2022/10/04 02:26:51;;;;;;;18.85;6.97;;;13.20;99.90;;;;;;5106653;27;36698;-59
2022/10/04 02:29:19;;;;;;;16.90;5.65;;;13.10;99.90;;;;;;5106644;27;37288;-59
2022/10/04 02:34:34;;;;;;;13.25;5.57;;;13.10;99.90;;;;;;5105521;27;38931;-58
2022/10/04 02:37:02;;;;;;;16.45;5.57;;;13.10;99.90;;;;;;5104302;27;36518;-58
2022/10/04 02:39:34;;;;;;;17.60;6.15;;;13.00;99.90;;;;;;5106819;27;37608;-59
2022/10/04 02:42:10;;;;;;;15.45;6.15;;;13.10;99.90;;;;;;5107517;27;38054;-59
2022/10/04 02:44:41;;;;;;;14.95;6.18;;;13.10;99.90;;;;;;5106567;27;38266;-59
2022/10/04 02:47:14;;;;;;;13.00;5.57;;;13.10;99.90;;;;;;5106571;27;36272;-59
2022/10/04 02:49:46;;;;;;;13.73;6.22;;;13.00;99.90;;;;;;5107019;27;39003;-59
2022/10/04 02:52:20;;;;;;;14.77;6.63;;;13.00;99.90;;;;;;5107748;27;38852;-59
2022/10/04 02:54:55;;;;;;;13.07;6.00;;;13.00;99.90;;;;;;5107393;27;37837;-59
2022/10/04 02:57:24;;;;;;;16.35;7.00;;;13.00;99.90;;;;;;5105807;27;36422;-58
2022/10/04 03:00:10;;;;;;;11.38;5.82;;;13.00;99.90;;;;;;5105122;27;39785;-59
2022/10/04 03:02:39;;;;;;;11.45;5.53;;;13.00;99.90;;;;;;5105905;27;37227;-59
2022/10/04 03:05:10;;;;;;;18.42;5.97;;;12.90;99.90;;;;;;5104959;27;37270;-59
2022/10/04 03:07:39;;;;;;;14.05;5.38;;;13.00;99.90;;;;;;5105440;27;37524;-59
2022/10/04 03:10:10;;;;;;;16.35;6.95;;;13.00;99.90;;;;;;5107386;27;39400;-59
2022/10/04 03:12:40;;;;;;;16.52;5.50;;;13.00;99.90;;;;;;5107742;27;37996;-59
2022/10/04 03:15:11;;;;;;;12.80;5.47;;;13.00;99.90;;;;;;5105979;27;36014;-59
2022/10/04 03:17:41;;;;;;;14.27;6.00;;;12.90;99.90;;;;;;5104105;27;36616;-59
2022/10/04 03:20:13;;;;;;;16.92;6.10;;;12.90;99.90;;;;;;5106971;27;38011;-59
2022/10/04 03:22:43;;;;;;;12.95;5.15;;;12.90;99.90;;;;;;5107261;27;38800;-59
2022/10/04 03:25:15;;;;;;;11.27;5.90;;;12.90;99.90;;;;;;5105752;27;38040;-59
2022/10/04 03:27:46;;;;;;;12.23;5.53;;;12.80;99.90;;;;;;5107069;27;36481;-59
2022/10/04 03:30:15;;;;;;;12.73;5.32;;;12.80;99.90;;;;;;5105097;27;36266;-59
2022/10/04 03:32:43;;;;;;;13.30;5.43;;;12.80;99.90;;;;;;5104685;27;37832;-59
2022/10/04 03:35:22;;;;;;;9.60;4.82;;;12.80;99.90;;;;;;5106155;27;37552;-59
2022/10/04 03:37:50;;;;;;;13.02;5.53;;;12.80;99.90;;;;;;5105575;27;36335;-59
2022/10/04 03:40:18;;;;;;;15.25;5.45;;;12.80;99.90;;;;;;5106980;27;36475;-59
2022/10/04 03:42:48;;;;;;;11.18;5.05;;;12.70;99.90;;;;;;5105824;27;37826;-59
2022/10/04 03:45:18;;;;;;;13.18;5.28;;;12.70;99.90;;;;;;5108484;27;37941;-59
2022/10/04 03:47:49;;;;;;;14.52;5.40;;;12.70;99.90;;;;;;5109450;27;36562;-59
2022/10/04 03:50:22;;;;;;;14.40;5.43;;;12.70;99.90;;;;;;5108774;27;39998;-58
2022/10/04 03:52:53;;;;;;;13.20;5.13;;;12.70;99.90;;;;;;5109552;27;38677;-59
2022/10/04 03:55:25;;;;;;;16.42;5.63;;;12.70;99.90;;;;;;5108018;27;37579;-59
2022/10/04 03:57:54;;;;;;;10.95;5.43;;;12.70;99.90;;;;;;5109164;27;37038;-58
2022/10/04 04:00:21;;;;;;;14.77;6.57;;;12.60;99.90;;;;;;5109707;27;38041;-59
2022/10/04 04:02:52;;;;;;;10.85;5.90;;;12.70;99.90;;;;;;5110708;27;37445;-58
2022/10/04 04:05:24;;;;;;;14.30;5.60;;;12.70;99.90;;;;;;5106343;27;37253;-59
2022/10/04 04:08:01;;;;;;;14.13;5.70;;;12.60;99.90;;;;;;5109625;27;34702;-59
2022/10/04 04:10:31;;;;;;;12.20;5.70;;;12.70;99.90;;;;;;5108311;27;37960;-58
2022/10/04 04:13:03;;;;;;;18.00;6.43;;;12.60;99.90;;;;;;5109447;27;39032;-59
2022/10/04 04:15:33;;;;;;;20.35;6.38;;;12.60;99.90;;;;;;5107765;27;38015;-58
2022/10/04 04:18:03;;;;;;;15.07;5.78;;;12.60;99.90;;;;;;5109374;27;35463;-59
2022/10/04 04:20:33;;;;;;;15.30;5.85;;;12.60;99.90;;;;;;5108760;27;37532;-59
2022/10/04 04:23:03;;;;;;;15.13;5.97;;;12.60;99.90;;;;;;5109737;27;35780;-59
2022/10/04 04:25:34;;;;;;;16.50;6.22;;;12.60;99.90;;;;;;5108221;27;38358;-59
2022/10/04 04:28:12;;;;;;;12.15;5.75;;;12.60;99.90;;;;;;5110360;27;37339;-58
2022/10/04 04:30:45;;;;;;;11.32;5.60;;;12.50;99.90;;;;;;5105952;27;38811;-59
2022/10/04 04:33:23;;;;;;;12.73;5.38;;;12.50;99.90;;;;;;5106895;27;37697;-59
2022/10/04 04:35:55;;;;;;;15.32;5.85;;;12.50;99.90;;;;;;5106485;27;36237;-58
2022/10/04 04:38:24;;;;;;;16.05;6.75;;;12.50;99.90;;;;;;5106846;27;36560;-58
2022/10/04 04:40:54;;;;;;;13.25;6.30;;;12.50;99.90;;;;;;5107958;27;39465;-58
2022/10/04 04:43:27;;;;;;;14.82;6.30;;;12.50;99.90;;;;;;5108729;27;38979;-58
2022/10/04 04:45:58;;;;;;;17.90;6.07;;;12.50;99.90;;;;;;5108706;27;38023;-59
2022/10/04 04:48:25;;;;;;;12.40;6.05;;;12.40;99.90;;;;;;5107268;27;36729;-59
2022/10/04 04:50:55;;;;;;;17.35;6.45;;;12.50;99.90;;;;;;5108368;27;38581;-59
2022/10/04 04:53:26;;;;;;;21.33;8.05;;;12.50;99.90;;;;;;5109241;27;37941;-59
2022/10/04 04:55:56;;;;;;;14.20;6.63;;;12.40;99.90;;;;;;5107345;27;36245;-59
2022/10/04 04:58:31;;;;;;;11.15;5.65;;;12.50;99.90;;;;;;5107150;27;36937;-58
2022/10/04 05:01:02;;;;;;;13.05;6.97;;;12.50;99.90;;;;;;5107657;27;37132;-59
2022/10/04 05:03:32;;;;;;;12.55;6.68;;;12.40;99.90;;;;;;5107786;27;39080;-59
2022/10/04 05:06:01;;;;;;;12.48;6.50;;;12.40;99.90;;;;;;5109891;27;40214;-59
2022/10/04 05:08:31;;;;;;;18.15;7.25;;;12.40;99.90;;;;;;5107294;27;37516;-59
2022/10/04 05:11:05;;;;;;;18.35;7.13;;;12.40;99.90;;;;;;5107677;27;37435;-58
2022/10/04 05:13:39;;;;;;;14.70;6.55;;;12.40;99.90;;;;;;5103632;27;38441;-58
2022/10/04 05:16:12;;;;;;;17.50;6.90;;;12.40;99.90;;;;;;5105057;27;39120;-59
2022/10/04 05:18:40;;;;;;;13.23;6.97;;;12.40;99.90;;;;;;5104403;27;36728;-59
2022/10/04 05:21:13;;;;;;;16.85;6.40;;;12.30;99.90;;;;;;5105685;27;36726;-60
2022/10/04 05:23:41;;;;;;;15.25;6.75;;;12.30;99.90;;;;;;5106906;27;36559;-59
2022/10/04 05:26:11;;;;;;;13.52;6.72;;;12.30;99.90;;;;;;5104165;27;39135;-60
2022/10/04 05:28:41;;;;;;;12.93;6.57;;;12.30;99.90;;;;;;5104878;27;36415;-60
2022/10/04 05:31:32;;;;;;;14.70;7.25;;;12.20;99.90;;;;;;5104951;27;37385;-59
2022/10/04 05:33:59;;;;;;;16.65;7.22;;;12.30;99.90;;;;;;5107480;27;37589;-59
2022/10/04 05:36:46;;;;;;;14.05;7.07;;;12.30;99.90;;;;;;5107954;27;37829;-59
2022/10/04 05:39:22;;;;;;;12.82;7.50;;;12.30;99.90;;;;;;5105860;27;35411;-60
2022/10/04 05:41:57;;;;;;;16.23;7.40;;;12.20;99.90;;;;;;5105440;27;39105;-59
2022/10/04 05:44:28;;;;;;;12.25;7.07;;;12.20;99.90;;;;;;5104961;27;37431;-59
2022/10/04 05:46:57;;;;;;;13.65;7.30;;;12.20;99.90;;;;;;5104167;27;39326;-59
2022/10/04 05:49:28;;;;;;;19.50;8.45;;;12.20;99.90;;;;;;5106725;27;37388;-59
2022/10/04 05:51:59;;;;;;;15.20;7.20;;;12.20;99.90;;;;;;5106888;27;38974;-59
2022/10/04 05:54:29;;;;;;;14.85;7.30;;;12.20;99.90;;;;;;5107175;27;37755;-59
2022/10/04 05:57:27;;;;;;;14.48;7.65;;;12.20;99.90;;;;;;5107272;27;36995;-59
2022/10/04 06:00:06;;;;;;;15.65;8.38;;;12.20;99.90;;;;;;5093376;27;36641;-59
2022/10/04 06:02:55;;;;;;;18.05;8.73;;;12.20;99.90;;;;;;5107284;27;37795;-59
2022/10/04 06:05:27;;;;;;;14.52;7.97;;;12.10;99.90;;;;;;5097525;27;38458;-59
2022/10/04 06:08:01;;;;;;;15.83;8.30;;;12.20;99.90;;;;;;5106845;27;39062;-59
2022/10/04 06:10:53;;;;;;;14.05;7.35;;;12.10;99.90;;;;;;5106187;27;35695;-59
2022/10/04 06:13:38;;;;;;;16.25;7.82;;;12.20;99.90;;;;;;5106124;27;37305;-59
2022/10/04 06:16:19;;;;;;;13.05;7.53;;;12.20;99.90;;;;;;5107243;27;36455;-59
2022/10/04 06:19:17;;;;;;;15.85;7.53;;;12.10;99.90;;;;;;5107238;27;38764;-59
2022/10/04 06:22:01;;;;;;;18.88;7.85;;;12.20;99.90;;;;;;5105416;27;36768;-59
2022/10/04 06:24:29;;;;;;;;;;;12.20;99.90;;;;;;5107611;27;37078;-59
2022/10/04 06:27:02;;;;;;;15.93;8.07;;;12.20;99.90;;;;;;5094042;27;38086;-59
2022/10/04 06:29:33;;;;;;;15.98;8.10;;;12.20;99.90;;;;;;5100146;27;37427;-59
2022/10/04 06:32:31;;;;;;;14.30;7.88;;;12.20;99.90;;;;;;5098141;27;36957;-58
2022/10/04 06:35:29;;;;;;;20.17;9.10;;;12.30;99.90;;;;;;5099546;27;38347;-59
2022/10/04 06:38:22;;;;;;;18.77;8.18;;;12.30;99.90;;;;;;5099188;27;38570;-59
2022/10/04 06:41:19;;;;;;;16.40;8.25;;;12.40;99.90;;;;;;5098251;27;37410;-59
2022/10/04 06:44:11;;;;;;;15.15;7.80;;;12.40;99.90;;;;;;5100756;27;38120;-59
2022/10/04 06:46:45;;;;;;;14.55;7.30;;;12.50;99.90;;;;;;5101451;27;36633;-59
2022/10/04 06:49:32;;;;;;;19.02;8.60;;;12.50;99.90;;;;;;5101520;27;38621;-59
2022/10/04 06:52:23;;;;;;;18.95;9.00;;;12.50;99.90;;;;;;5098157;27;36868;-59
2022/10/04 06:55:08;;;;;;;15.35;8.57;;;12.60;99.90;;;;;;5100601;27;37248;-59
2022/10/04 06:58:15;;;;;;;17.55;8.45;;;12.60;99.90;;;;;;5100468;27;38334;-59
2022/10/04 07:00:51;;;;;;;15.40;8.45;;;12.70;99.90;;;;;;5101035;27;37928;-59
2022/10/04 07:03:26;;;;;;;15.45;9.30;;;12.70;99.90;;;;;;5099749;27;37781;-59
2022/10/04 07:06:01;;;;;;;20.25;9.07;;;12.80;99.90;;;;;;5101647;27;36213;-59
2022/10/04 07:08:37;;;;;;;17.92;8.82;;;12.90;99.90;;;;;;5100784;27;38334;-59
2022/10/04 07:11:14;;;;;;;19.65;10.02;;;12.90;99.90;;;;;;5100789;27;37748;-60
2022/10/04 07:13:48;;;;;;;16.60;9.10;;;13.10;99.90;;;;;;5098430;27;37939;-59
2022/10/04 07:16:36;;;;;;;12.45;8.38;;;13.10;99.90;;;;;;5100316;27;37098;-59
2022/10/04 07:19:25;;;;;;;18.00;8.73;;;13.10;99.90;;;;;;5100793;27;37710;-59
2022/10/04 07:22:01;;;;;;;17.67;9.60;;;13.10;99.90;;;;;;5104294;27;37618;-59
2022/10/04 07:24:41;;;;;;;15.23;9.13;;;13.10;99.90;;;;;;5103814;27;39047;-59
2022/10/04 07:27:14;;;;;;;13.50;8.23;;;13.10;99.90;;;;;;5102272;27;37986;-59
2022/10/04 07:29:45;;;;;;;18.80;8.63;;;13.20;99.90;;;;;;5103599;27;37356;-60
2022/10/04 07:32:20;;;;;;;20.33;9.57;;;13.20;99.90;;;;;;5103501;27;36719;-60
2022/10/04 07:34:52;;;;;;;16.85;9.30;;;13.20;99.90;;;;;;5103732;27;36281;-59
2022/10/04 07:37:22;;;;;;;18.95;9.73;;;13.20;99.90;;;;;;5102213;27;36722;-59
2022/10/04 07:39:57;;;;;;;15.52;9.05;;;13.30;99.90;;;;;;5103618;27;40645;-59
2022/10/04 07:42:31;;;;;;;13.57;8.68;;;13.40;99.90;;;;;;5106161;27;36598;-59
2022/10/04 07:45:05;;;;;;;;;;;13.40;99.90;;;;;;5109332;27;38656;-60
2022/10/04 07:47:32;;;;;;;15.38;9.00;;;13.50;99.90;;;;;;5109227;27;36666;-60
2022/10/04 07:50:00;;;;;;;14.75;8.63;;;13.50;99.90;;;;;;5106888;27;37378;-59
2022/10/04 07:52:49;;;;;;;15.45;9.38;;;13.50;99.90;;;;;;5106107;27;37710;-59
2022/10/04 07:55:27;;;;;;;18.33;8.95;;;13.60;99.90;;;;;;5106741;27;37370;-59
2022/10/04 07:58:09;;;;;;;16.80;8.63;;;13.60;99.90;;;;;;5107320;27;38926;-59
2022/10/04 08:00:44;;;;;;;17.90;9.20;;;13.60;99.90;;;;;;5106975;27;38413;-59
2022/10/04 08:03:45;;;;;;;17.02;8.50;;;13.60;99.90;;;;;;5109264;27;37525;-59
2022/10/04 08:06:17;;;;;;;19.65;8.52;;;13.60;99.90;;;;;;5086846;27;37480;-59
2022/10/04 08:09:20;;;;;;;17.17;8.40;;;13.60;99.90;;;;;;5110817;27;36053;-59
2022/10/04 08:11:58;;;;;;;12.45;7.85;;;13.60;99.90;;;;;;5096463;27;38327;-59
2022/10/04 08:14:35;;;;;;;16.73;7.82;;;13.70;99.90;;;;;;5109844;27;37855;-59
2022/10/04 08:17:14;;;;;;;17.40;8.80;;;13.70;99.90;;;;;;5109156;27;38069;-63
2022/10/04 08:19:52;;;;;;;13.70;8.80;;;13.80;99.90;;;;;;5108128;27;35378;-59
2022/10/04 08:22:33;;;;;;;18.33;8.05;;;13.80;99.90;;;;;;5110002;27;39570;-59
2022/10/04 08:25:11;;;;;;;16.80;9.18;;;13.90;99.90;;;;;;5109055;27;38274;-59
2022/10/04 08:30:54;;;;;;;19.63;9.38;;;14.00;99.90;;;;;;5106395;27;39852;-59
2022/10/04 08:33:37;;;;;;;15.82;8.48;;;14.00;99.90;;;;;;5109391;27;37176;-60
2022/10/04 08:36:17;;;;;;;14.38;7.80;;;14.10;99.90;;;;;;5109373;27;38122;-58
2022/10/04 08:38:50;;;;;;;16.13;7.90;;;14.20;99.90;;;;;;5108785;27;37390;-59
2022/10/04 08:41:45;;;;;;;;;;;14.20;99.90;;;;;;5109514;27;36697;-59
2022/10/04 08:44:27;;;;;;;;;;;14.30;99.90;;;;;;5110064;27;40237;-59
2022/10/04 08:47:39;;;;;;;11.65;6.97;;;14.40;99.90;;;;;;5106329;27;37729;-59
2022/10/04 08:50:48;;;;;;;16.63;8.77;;;14.40;99.90;;;;;;5108825;27;39043;-59
2022/10/04 08:53:52;;;;;;;13.65;7.20;;;14.50;99.90;;;;;;5108260;27;38951;-59
2022/10/04 08:56:31;;;;;;;14.18;7.20;;;14.50;99.90;;;;;;5107300;27;37176;-59
2022/10/04 08:59:18;;;;;;;14.82;7.20;;;14.60;99.90;;;;;;5106410;27;37878;-60
2022/10/04 09:02:19;;;;;;;16.35;6.70;;;14.60;99.90;;;;;;5107746;27;37818;-59
2022/10/04 09:05:16;;;;;;;15.77;7.25;;;14.70;99.90;;;;;;5107838;27;37577;-59
2022/10/04 09:08:22;;;;;;;11.68;6.50;;;14.70;99.90;;;;;;5104017;27;36380;-60
2022/10/04 09:11:34;;;;;;;14.25;6.30;;;14.80;99.90;;;;;;5107974;27;38141;-59
2022/10/04 09:14:30;;;;;;;13.05;6.68;;;14.90;99.90;;;;;;5064432;28;36283;-60
2022/10/04 09:17:07;;;;;;;19.27;6.65;;;14.90;99.90;;;;;;5104986;27;37025;-59
2022/10/04 09:19:49;;;;;;;14.60;6.60;;;15.00;99.90;;;;;;5108172;27;37565;-59
2022/10/04 09:22:19;;;;;;;12.23;6.60;;;15.00;99.90;;;;;;5108191;27;38410;-59
2022/10/04 09:25:13;;;;;;;9.65;5.47;;;15.10;99.90;;;;;;5106941;27;37865;-59
2022/10/04 09:28:02;;;;;;;13.75;5.28;;;15.10;99.90;;;;;;5106972;27;38198;-60
2022/10/04 09:30:52;;;;;;;10.40;5.40;;;15.20;99.90;;;;;;5082293;27;38104;-59
2022/10/04 09:33:40;;;;;;;12.68;5.82;;;15.30;99.90;;;;;;5107719;27;37205;-60
2022/10/04 09:36:33;;;;;;;12.82;5.78;;;15.30;99.90;;;;;;5106936;27;38591;-59
2022/10/04 09:39:47;;;;;;;11.00;5.97;;;15.40;99.90;;;;;;5106955;27;36630;-60
2022/10/04 09:42:38;;;;;;;11.25;5.75;;;15.40;99.90;;;;;;5093615;27;38682;-60
2022/10/04 09:45:45;;;;;;;13.15;5.88;;;15.40;99.90;;;;;;5107619;27;38004;-60
2022/10/04 09:48:25;;;;;;;20.52;6.25;;;15.40;99.90;;;;;;5070114;27;37636;-59
2022/10/04 09:51:08;;;;;;;13.68;5.78;;;15.50;99.90;;;;;;5107296;27;37348;-60
2022/10/04 09:53:45;;;;;;;12.52;5.35;;;15.60;99.90;;;;;;5104812;27;37869;-59
2022/10/04 09:56:36;;;;;;;10.65;5.18;;;15.60;99.90;;;;;;5106279;27;38854;-60
2022/10/04 09:59:25;;;;;;;12.63;6.65;;;15.70;99.90;;;;;;5107737;27;37380;-60
2022/10/04 10:02:28;;;;;;;13.38;6.28;;;15.80;99.90;;;;;;5107793;27;37517;-60
2022/10/04 10:05:15;;;;;;;13.55;5.57;;;15.80;99.90;;;;;;5107846;27;39287;-59
2022/10/04 10:07:49;;;;;;;12.88;6.47;;;15.90;99.90;;;;;;5108174;27;38162;-60
2022/10/04 10:13:41;;;;;;;12.05;7.47;;;16.10;99.90;;;;;;5107868;27;38877;-60
2022/10/04 10:16:33;;;;;;;12.85;6.75;;;16.10;99.90;;;;;;5108521;27;37026;-60
2022/10/04 10:19:16;;;;;;;14.88;6.32;;;16.20;99.90;;;;;;5107607;27;39081;-60
2022/10/04 10:21:58;;;;;;;10.45;6.43;;;16.30;99.90;;;;;;5106938;27;36298;-60
2022/10/04 10:24:42;;;;;;;11.35;5.78;;;16.40;99.90;;;;;;5106617;27;36137;-60
2022/10/04 10:27:43;;;;;;;11.60;6.07;;;16.50;99.90;;;;;;5106946;27;36300;-59
2022/10/04 10:30:22;;;;;;;11.10;5.30;;;16.50;99.90;;;;;;5048343;27;39170;-60
2022/10/04 10:33:16;;;;;;;14.45;5.82;;;16.60;99.90;;;;;;5105150;27;37150;-60
2022/10/04 10:36:21;;;;;;;11.32;5.43;;;16.70;99.90;;;;;;5106859;27;37651;-60
2022/10/04 10:39:12;;;;;;;11.07;5.10;;;16.70;99.90;;;;;;5094520;27;38357;-60
2022/10/04 10:42:01;;;;;;;11.80;5.82;;;16.80;99.90;;;;;;5089050;27;40090;-60
2022/10/04 10:44:41;;;;;;;9.90;4.80;;;16.80;99.90;;;;;;5105790;27;37047;-60
2022/10/04 10:47:30;;;;;;;11.50;5.00;;;16.80;99.90;;;;;;5105987;27;36649;-60
2022/10/04 10:50:14;;;;;;;11.10;5.45;;;16.80;99.90;;;;;;5106385;27;37653;-60
2022/10/04 10:53:16;;;;;;;12.98;5.28;;;16.80;99.90;;;;;;5106870;27;39490;-60
2022/10/04 10:56:24;;;;;;;9.77;5.05;;;16.80;99.90;;;;;;5105094;27;37995;-60
2022/10/04 10:59:12;;;;;;;12.15;4.53;;;16.80;99.90;;;;;;5105214;27;37163;-59
2022/10/04 11:02:04;;;;;;;9.07;4.97;;;16.80;99.90;;;;;;5091731;27;37795;-60
2022/10/04 11:04:48;;;;;;;12.27;5.35;;;16.90;99.90;;;;;;5097241;27;39549;-60
2022/10/04 11:07:40;;;;;;;9.45;4.93;;;17.00;99.90;;;;;;5099226;27;39387;-60
2022/10/04 11:10:38;;;;;;;10.85;4.88;;;17.20;99.90;;;;;;5096270;27;36555;-60
2022/10/04 11:13:33;;;;;;;7.65;4.55;;;17.30;99.90;;;;;;5098658;27;37542;-60
2022/10/04 11:16:40;;;;;;;8.88;4.40;;;17.30;99.90;;;;;;5098233;27;38132;-60
2022/10/04 11:19:49;;;;;;;13.68;5.25;;;17.30;99.90;;;;;;5059328;27;37609;-60
2022/10/04 11:22:57;;;;;;;12.23;4.57;;;17.40;99.90;;;;;;5100138;27;37685;-60
2022/10/04 11:25:57;;;;;;;13.55;5.32;;;17.50;99.90;;;;;;5088814;27;37368;-60
2022/10/04 11:28:36;;;;;;;9.75;4.85;;;17.50;99.90;;;;;;5099146;27;37690;-60
2022/10/04 11:31:40;;;;;;;10.80;4.63;;;17.60;99.90;;;;;;5097916;27;37214;-60
2022/10/04 11:34:46;;;;;;;9.68;4.47;;;17.70;99.90;;;;;;5099480;27;36533;-60
2022/10/04 11:37:21;;;;;;;12.55;4.68;;;17.70;99.90;;;;;;5098479;27;37620;-60
2022/10/04 11:40:16;;;;;;;10.93;5.07;;;17.80;99.90;;;;;;5098881;27;38153;-60
2022/10/04 11:43:05;;;;;;;8.88;4.75;;;17.70;99.90;;;;;;5098013;27;36405;-60
2022/10/04 11:46:04;;;;;;;10.52;4.18;;;17.60;99.90;;;;;;5097539;27;36621;-60
2022/10/04 11:48:43;;;;;;;10.52;4.93;;;17.60;99.90;;;;;;5098244;27;36856;-60
2022/10/04 11:51:34;;;;;;;9.43;4.65;;;17.60;99.90;;;;;;5095429;27;37532;-60
2022/10/04 11:54:32;;;;;;;11.95;4.78;;;17.60;99.90;;;;;;5098770;27;37238;-60
2022/10/04 11:57:31;;;;;;;8.98;4.38;;;17.70;99.90;;;;;;5105277;27;36687;-60
2022/10/04 12:00:04;;;;;;;10.43;5.22;;;17.80;99.90;;;;;;5099686;27;38903;-60
2022/10/04 12:03:08;;;;;;;10.02;4.30;;;17.80;99.90;;;;;;5103811;27;38722;-60
2022/10/04 12:06:13;;;;;;;9.75;4.93;;;17.80;99.90;;;;;;5106764;27;38195;-60
2022/10/04 12:08:51;;;;;;;8.52;4.05;;;17.80;99.90;;;;;;5106116;27;37759;-60
2022/10/04 12:15:04;;;;;;;10.25;4.80;;;17.90;99.90;;;;;;5109431;27;39932;-61
2022/10/04 12:18:10;;;;;;;10.10;4.43;;;17.90;99.90;;;;;;5109406;27;36262;-60
2022/10/04 12:21:10;;;;;;;8.55;4.85;;;17.80;99.90;;;;;;5060507;27;36690;-60
2022/10/04 12:24:37;;;;;;;9.82;5.32;;;17.80;99.90;;;;;;5107995;27;37190;-60
2022/10/04 12:27:31;;;;;;;12.63;5.35;;;17.80;99.90;;;;;;5107042;27;37749;-58
2022/10/04 12:30:20;;;;;;;9.68;5.05;;;17.80;99.90;;;;;;5107056;27;38001;-58
2022/10/04 12:33:02;;;;;;;10.25;5.28;;;17.80;99.90;;;;;;5106303;27;36739;-58
2022/10/04 12:35:41;;;;;;;9.38;4.97;;;17.80;99.90;;;;;;5109325;27;40075;-58
2022/10/04 12:38:25;;;;;;;9.10;5.03;;;17.80;99.90;;;;;;5108753;27;38600;-58
2022/10/04 12:41:04;;;;;;;8.40;4.65;;;17.70;99.90;;;;;;5106996;27;37925;-58
2022/10/04 12:43:40;;;;;;;9.02;4.70;;;17.70;99.90;;;;;;5107854;27;36644;-58
2022/10/04 12:46:20;;;;;;;11.00;4.60;;;17.70;99.90;;;;;;5106542;27;37468;-58
2022/10/04 12:49:08;;;;;;;14.70;4.78;;;17.70;99.90;;;;;;5107929;27;37633;-60
2022/10/04 12:51:49;;;;;;;9.50;4.50;;;17.70;99.90;;;;;;5107600;27;37352;-60
2022/10/04 12:54:38;;;;;;;10.80;4.75;;;17.60;99.90;;;;;;5108976;27;37172;-60
2022/10/04 12:57:31;;;;;;;10.05;4.43;;;17.60;99.60;;;;;;5107897;27;38570;-60
2022/10/04 13:00:05;;;;;;;10.07;4.57;;;17.60;99.60;;;;;;5107085;27;38070;-60
2022/10/04 13:03:06;;;;;;;9.70;4.53;;;17.50;99.90;;;;;;5107382;27;37531;-60
2022/10/04 13:05:42;;;;;;;9.77;4.80;;;17.40;99.90;;;;;;5106597;27;35449;-60
2022/10/04 13:08:31;;;;;;;10.23;5.22;;;17.40;99.90;;;;;;5106886;27;38127;-60
2022/10/04 13:11:23;;;;;;;12.38;4.45;;;17.30;99.90;;;;;;5105918;27;37794;-60
2022/10/04 13:14:18;;;;;;;9.57;4.30;;;17.30;99.90;;;;;;5070302;27;37479;-60
2022/10/04 13:16:54;;;;;;;8.77;4.28;;;17.20;99.90;;;;;;5105742;27;36727;-60
2022/10/04 13:19:28;;;;;;;9.18;4.10;;;17.20;99.90;;;;;;5108870;27;37818;-59
2022/10/04 13:22:19;;;;;;;11.05;4.15;;;17.10;99.90;;;;;;5107753;27;38781;-60
2022/10/04 13:25:02;;;;;;;10.82;3.65;;;17.10;99.90;;;;;;5108882;27;37783;-60
2022/10/04 13:27:40;;;;;;;7.60;3.57;;;17.10;99.90;;;;;;5109894;27;36542;-60
2022/10/04 13:30:19;;;;;;;10.82;3.92;;;17.10;99.90;;;;;;5108220;27;38933;-60
2022/10/04 13:32:55;;;;;;;9.90;3.95;;;17.10;99.90;;;;;;5109054;27;39816;-60
2022/10/04 13:35:26;;;;;;;8.82;4.88;;;17.10;99.90;;;;;;5109468;27;38459;-60
2022/10/04 13:38:26;;;;;;;9.45;4.13;;;17.00;99.90;;;;;;5107765;27;36481;-60
2022/10/04 13:41:06;;;;;;;10.65;4.10;;;17.00;99.90;;;;;;5109456;27;36943;-60
2022/10/04 13:43:57;;;;;;;10.13;3.75;;;16.90;99.90;;;;;;5110026;27;38214;-60
2022/10/04 13:46:38;;;;;;;10.95;3.97;;;16.90;99.90;;;;;;5109317;27;36557;-59
2022/10/04 13:49:24;;;;;;;10.73;4.45;;;16.80;99.90;;;;;;5110093;27;39356;-60
2022/10/04 13:57:51;;;;;;;10.02;4.00;;;16.70;99.90;;;;;;5108121;27;38387;-60
2022/10/04 14:00:40;;;;;;;7.15;4.38;;;16.70;99.90;;;;;;5106915;27;35258;-60
2022/10/04 14:03:29;;;;;;;8.20;3.75;;;16.70;99.90;;;;;;5107525;27;36581;-60
2022/10/04 14:06:26;;;;;;;9.95;3.90;;;16.70;99.90;;;;;;5108363;27;41997;-60
2022/10/04 14:09:22;;;;;;;9.93;4.25;;;16.70;99.90;;;;;;5101703;27;37192;-60